Airport Name : Mid Way Rgnl

Other Name : Mid Way Rgnl

ICAO : KJWY

IATA :

FAA : JWY

Latitude : 32.456097

Longitude : -96.912411

Country : United States

Local Date and Time : 18 Jun 2024 19:56

 

TAF (Terminal Aerodrome Forecast)

 

METAR (METeorological Aerodrome Report)

KJWY 190035Z AUTO 13009G17KT 10SM CLR 31/21 A2987 RMK AO2 T03070210 TSNO $

KJWY 190015Z AUTO 13007G15KT 070V150 10SM CLR 31/20 A2986 RMK AO2 T03110204 TSNO $

KJWY 182355Z AUTO 13009KT 10SM CLR 31/21 A2986 RMK AO2 T03120208 TSNO $

KJWY 182335Z AUTO 14009G14KT 10SM FEW048 32/21 A2986 RMK AO2 T03160206 TSNO $

KJWY 182315Z AUTO 15008KT 10SM FEW047 32/21 A2986 RMK AO2 T03200215 TSNO $

KJWY 182255Z AUTO 14011G16KT 10SM FEW046 32/21 A2986 RMK AO2 T03220213 TSNO $

KJWY 182235Z AUTO 14006KT 10SM FEW046 32/22 A2986 RMK AO2 T03230218 TSNO $

KJWY 182215Z AUTO 14008KT 100V170 10SM FEW050 32/21 A2986 RMK AO2 T03170213 TSNO $

KJWY 182155Z AUTO 14005G15KT 100V170 10SM CLR 32/21 A2986 RMK AO2 T03200213 TSNO $

KJWY 182135Z AUTO 12008KT 10SM FEW049 32/22 A2987 RMK AO2 T03190216 TSNO $

KJWY 182115Z AUTO 14005G15KT 110V180 10SM FEW048 SCT065 33/22 A2987 RMK AO2 T03260217 TSNO $